createdAt,value
2023-11-23T00:01:51.673Z,0.86
2023-11-23T00:04:22.251Z,0.90
2023-11-23T00:06:50.711Z,0.86
2023-11-23T00:09:20.601Z,0.94
2023-11-23T00:11:49.001Z,0.94
2023-11-23T00:14:17.447Z,0.96
2023-11-23T00:16:45.939Z,0.99
2023-11-23T00:19:15.551Z,1.03
2023-11-23T00:21:43.713Z,1.04
2023-11-23T00:24:12.177Z,1.04
2023-11-23T00:26:40.327Z,1.04
2023-11-23T00:29:08.496Z,1.08
2023-11-23T00:31:36.932Z,1.10
2023-11-23T00:34:06.703Z,1.17
2023-11-23T00:36:38.851Z,1.16
2023-11-23T00:39:09.972Z,1.20
2023-11-23T00:41:41.015Z,1.23
2023-11-23T00:44:09.421Z,1.30
2023-11-23T00:46:37.677Z,1.34
2023-11-23T00:49:06.542Z,1.35
2023-11-23T00:51:37.678Z,1.38
2023-11-23T00:54:06.375Z,1.43
2023-11-23T00:56:34.465Z,1.47
2023-11-23T00:59:02.532Z,1.47
2023-11-23T01:01:30.821Z,1.51
2023-11-23T01:03:59.503Z,1.54
2023-11-23T01:06:27.658Z,1.55
2023-11-23T01:08:57.306Z,1.55
2023-11-23T01:11:26.053Z,1.58
2023-11-23T01:13:55.333Z,1.59
2023-11-23T01:16:24.063Z,1.64
2023-11-23T01:18:52.983Z,1.65
2023-11-23T01:21:21.063Z,1.71
2023-11-23T01:23:49.141Z,1.72
2023-11-23T01:26:18.669Z,1.72
2023-11-23T01:28:46.867Z,1.78
2023-11-23T01:31:15.247Z,1.75
2023-11-23T01:33:43.936Z,1.79
2023-11-23T01:36:12.210Z,1.86
2023-11-23T01:38:40.357Z,1.91
2023-11-23T01:41:08.893Z,1.98
2023-11-23T01:43:38.343Z,2.05
2023-11-23T01:46:06.723Z,2.06
2023-11-23T01:48:35.349Z,2.13
2023-11-23T01:51:04.919Z,2.16
2023-11-23T01:53:33.363Z,2.23
2023-11-23T01:56:02.221Z,2.29
2023-11-23T01:58:31.090Z,2.36
2023-11-23T02:01:00.635Z,2.38
2023-11-23T02:03:29.356Z,2.44
2023-11-23T02:05:57.801Z,2.51
2023-11-23T02:08:25.951Z,2.54
2023-11-23T02:10:54.847Z,2.60
2023-11-23T02:13:24.007Z,2.62
2023-11-23T02:15:52.198Z,2.64
2023-11-23T02:18:21.838Z,2.66
2023-11-23T02:20:50.265Z,2.71
2023-11-23T02:23:18.730Z,2.74
2023-11-23T02:25:48.780Z,2.77
2023-11-23T02:28:16.945Z,2.81
2023-11-23T02:30:46.217Z,2.87
2023-11-23T02:33:16.093Z,2.92
2023-11-23T02:35:45.306Z,2.98
2023-11-23T02:38:13.422Z,3.01
2023-11-23T02:40:41.917Z,3.06
2023-11-23T02:43:11.827Z,3.15
2023-11-23T02:45:40.550Z,3.24
2023-11-23T02:48:09.336Z,3.30
2023-11-23T02:50:38.138Z,3.36
2023-11-23T02:53:06.328Z,3.41
2023-11-23T02:55:34.566Z,3.41
2023-11-23T02:58:03.168Z,3.44
2023-11-23T03:00:34.560Z,3.53
2023-11-23T03:03:02.943Z,3.60
2023-11-23T03:05:31.443Z,3.63
2023-11-23T03:07:59.832Z,3.66
2023-11-23T03:10:28.615Z,3.68
2023-11-23T03:12:57.099Z,3.70
2023-11-23T03:15:25.277Z,3.73
2023-11-23T03:17:55.071Z,3.73
2023-11-23T03:20:23.315Z,3.74
2023-11-23T03:22:51.753Z,3.78
2023-11-23T03:25:20.015Z,3.84
2023-11-23T03:27:48.284Z,3.91
2023-11-23T03:30:17.034Z,3.92
2023-11-23T03:32:45.568Z,3.97
2023-11-23T03:35:15.983Z,3.99
2023-11-23T03:37:44.198Z,4.01
2023-11-23T03:40:14.033Z,4.05
2023-11-23T03:42:42.111Z,4.03
2023-11-23T03:45:11.587Z,4.09
2023-11-23T03:47:39.869Z,4.13
2023-11-23T03:50:09.051Z,4.18
2023-11-23T03:52:38.664Z,4.20
2023-11-23T03:55:09.419Z,4.23
2023-11-23T03:57:38.535Z,4.26
2023-11-23T04:00:08.531Z,4.29
2023-11-23T04:02:38.553Z,4.30
2023-11-23T04:05:08.112Z,4.30
2023-11-23T04:07:36.281Z,4.35
2023-11-23T04:10:08.312Z,4.36
2023-11-23T04:12:36.550Z,4.38
2023-11-23T04:15:06.758Z,4.40
2023-11-23T04:17:34.997Z,4.42
2023-11-23T04:20:06.944Z,4.45
2023-11-23T04:22:35.634Z,4.46
2023-11-23T04:25:06.720Z,4.47
2023-11-23T04:27:35.838Z,4.50
2023-11-23T04:30:07.972Z,4.52
2023-11-23T04:32:36.132Z,4.53
2023-11-23T04:35:05.889Z,4.57
2023-11-23T04:37:35.240Z,4.60
2023-11-23T04:40:09.524Z,4.64
2023-11-23T04:42:38.863Z,4.70
2023-11-23T04:45:09.987Z,4.73
2023-11-23T04:47:38.359Z,4.73
2023-11-23T04:50:07.556Z,4.74
2023-11-23T04:52:36.217Z,4.80
2023-11-23T04:55:05.051Z,4.81
2023-11-23T04:57:34.789Z,4.81
2023-11-23T05:00:05.894Z,4.80
2023-11-23T05:02:35.041Z,4.85
2023-11-23T05:05:04.962Z,4.88
2023-11-23T05:07:35.427Z,4.89
2023-11-23T05:10:03.679Z,4.92
2023-11-23T05:12:32.062Z,4.98
2023-11-23T05:15:01.862Z,4.98
2023-11-23T05:17:30.382Z,5.01
2023-11-23T05:19:58.514Z,5.08
2023-11-23T05:22:27.316Z,5.11
2023-11-23T05:24:55.438Z,5.16
2023-11-23T05:27:23.501Z,5.19
2023-11-23T05:29:52.914Z,5.24
2023-11-23T05:32:22.478Z,5.29
2023-11-23T05:34:50.652Z,5.32
2023-11-23T05:37:18.818Z,5.39
2023-11-23T05:39:47.246Z,5.40
2023-11-23T05:42:15.630Z,5.53
2023-11-23T05:44:44.294Z,5.59
2023-11-23T05:47:12.808Z,5.62
2023-11-23T05:49:43.051Z,5.67
2023-11-23T05:52:11.253Z,5.76
2023-11-23T05:54:40.668Z,5.80
2023-11-23T05:57:09.035Z,5.87
2023-11-23T05:59:37.902Z,5.91
2023-11-23T06:02:10.128Z,5.95
2023-11-23T06:04:39.146Z,5.98
2023-11-23T06:07:11.508Z,6.03
2023-11-23T06:09:39.565Z,6.07
2023-11-23T06:12:08.295Z,6.07
2023-11-23T06:14:37.699Z,6.10
2023-11-23T06:17:06.609Z,6.10
2023-11-23T06:19:34.785Z,6.14
2023-11-23T06:22:03.803Z,6.13
2023-11-23T06:24:33.988Z,6.14
2023-11-23T06:27:02.335Z,6.17
2023-11-23T06:29:30.968Z,6.21
2023-11-23T06:32:02.067Z,6.24
2023-11-23T06:34:31.139Z,6.28
2023-11-23T06:36:59.307Z,6.38
2023-11-23T06:39:27.968Z,6.42
2023-11-23T06:41:57.554Z,6.49
2023-11-23T06:44:26.610Z,6.57
2023-11-23T06:46:54.813Z,6.62
2023-11-23T06:49:22.929Z,6.65
2023-11-23T06:51:51.827Z,6.62
2023-11-23T06:54:20.361Z,6.53
2023-11-23T06:56:48.933Z,6.48
2023-11-23T06:59:19.880Z,6.44
2023-11-23T07:01:48.193Z,6.39
2023-11-23T07:04:17.053Z,6.32
2023-11-23T07:06:47.927Z,6.32
2023-11-23T07:09:18.255Z,6.29
2023-11-23T07:11:58.887Z,6.28
2023-11-23T07:14:29.319Z,6.25
2023-11-23T07:19:42.163Z,6.25
2023-11-23T07:22:13.201Z,6.24
2023-11-23T07:24:43.851Z,6.29
2023-11-23T07:27:15.474Z,6.31
2023-11-23T07:29:51.790Z,6.31
2023-11-23T07:32:35.394Z,6.34
2023-11-23T07:35:14.129Z,6.42
2023-11-23T07:37:43.774Z,6.42
2023-11-23T07:40:18.779Z,6.44
2023-11-23T07:42:47.422Z,6.42
2023-11-23T07:45:21.369Z,6.44
2023-11-23T07:47:53.156Z,6.42
2023-11-23T07:50:21.625Z,6.50
2023-11-23T07:52:50.065Z,6.53
2023-11-23T07:55:19.470Z,6.53
2023-11-23T07:57:50.657Z,6.52
2023-11-23T08:00:24.118Z,6.52
2023-11-23T08:02:54.287Z,6.55
2023-11-23T08:05:23.076Z,6.55
2023-11-23T08:07:52.736Z,6.59
2023-11-23T08:10:21.332Z,6.61
2023-11-23T08:12:49.880Z,6.59
2023-11-23T08:15:18.623Z,6.63
2023-11-23T08:17:58.374Z,6.68
2023-11-23T08:20:33.584Z,6.72
2023-11-23T08:23:02.012Z,6.72
2023-11-23T08:25:31.108Z,6.76
2023-11-23T08:28:00.515Z,6.76
2023-11-23T08:30:29.981Z,6.77
2023-11-23T08:33:02.287Z,6.75
2023-11-23T08:35:30.543Z,6.75
2023-11-23T08:37:59.026Z,6.77
2023-11-23T08:40:27.488Z,6.79
2023-11-23T08:42:55.754Z,6.75
2023-11-23T08:45:23.963Z,6.75
2023-11-23T08:47:52.475Z,6.73
2023-11-23T08:50:22.478Z,6.76
2023-11-23T08:52:51.339Z,6.76
2023-11-23T08:55:20.385Z,6.73
2023-11-23T08:57:52.304Z,6.72
2023-11-23T09:00:25.379Z,6.76
2023-11-23T09:02:55.097Z,6.76
2023-11-23T09:05:24.783Z,6.75
2023-11-23T09:07:55.061Z,6.76
2023-11-23T09:10:24.707Z,6.76
2023-11-23T09:12:53.738Z,6.80
2023-11-23T09:15:24.078Z,6.79
2023-11-23T09:17:53.061Z,6.77
2023-11-23T09:20:21.242Z,6.82
2023-11-23T09:22:53.061Z,6.80
2023-11-23T09:25:21.582Z,6.80
2023-11-23T09:27:51.161Z,6.82
2023-11-23T09:30:19.853Z,6.82
2023-11-23T09:32:48.791Z,6.80
2023-11-23T09:35:17.866Z,6.84
2023-11-23T09:37:46.505Z,6.83
2023-11-23T09:40:24.754Z,6.79
2023-11-23T09:42:56.578Z,6.80
2023-11-23T09:45:26.813Z,6.93
2023-11-23T09:47:57.681Z,7.01
2023-11-23T09:50:36.946Z,7.13
2023-11-23T09:53:09.265Z,7.17
2023-11-23T09:55:40.929Z,7.24
2023-11-23T09:58:09.522Z,7.31
2023-11-23T10:00:38.352Z,7.32
2023-11-23T10:03:11.637Z,7.32
2023-11-23T10:05:40.650Z,7.28
2023-11-23T10:08:11.053Z,7.23
2023-11-23T10:10:41.903Z,7.21
2023-11-23T10:13:10.702Z,7.20
2023-11-23T10:15:39.405Z,7.20
2023-11-23T10:18:10.457Z,7.18
2023-11-23T10:20:40.687Z,7.21
2023-11-23T10:23:11.193Z,7.23
2023-11-23T10:25:46.284Z,7.24
2023-11-23T10:28:15.884Z,7.23
2023-11-23T10:30:44.401Z,7.24
2023-11-23T10:33:14.361Z,7.25
2023-11-23T10:35:44.498Z,7.28
2023-11-23T10:38:16.884Z,7.30
2023-11-23T10:40:50.421Z,7.32
2023-11-23T10:43:20.136Z,7.32
2023-11-23T10:45:50.338Z,7.36
2023-11-23T10:48:22.010Z,7.41
2023-11-23T10:50:50.753Z,7.42
2023-11-23T10:53:18.927Z,7.42
2023-11-23T10:55:50.806Z,7.47
2023-11-23T10:58:20.375Z,7.51
2023-11-23T11:00:51.491Z,7.56
2023-11-23T11:03:20.334Z,7.56
2023-11-23T11:05:51.887Z,7.56
2023-11-23T11:08:21.778Z,7.59
2023-11-23T11:10:55.159Z,7.61
2023-11-23T11:13:25.899Z,7.58
2023-11-23T11:15:54.734Z,7.59
2023-11-23T11:18:24.205Z,7.61
2023-11-23T11:21:03.129Z,7.63
2023-11-23T11:23:42.624Z,7.66
2023-11-23T11:26:14.156Z,7.68
2023-11-23T11:28:42.937Z,7.68
2023-11-23T11:31:15.394Z,7.75
2023-11-23T11:33:44.009Z,7.73
2023-11-23T11:36:13.816Z,7.78
2023-11-23T11:38:42.612Z,7.82
2023-11-23T11:41:14.850Z,7.83
2023-11-23T11:43:45.764Z,7.89
2023-11-23T11:46:14.577Z,7.93
2023-11-23T11:48:43.190Z,7.94
2023-11-23T11:51:12.850Z,8.02
2023-11-23T11:53:41.692Z,8.10
2023-11-23T11:56:10.801Z,8.20
2023-11-23T11:58:44.076Z,8.30
2023-11-23T12:01:12.580Z,8.41
2023-11-23T12:03:41.008Z,8.51
2023-11-23T12:06:11.966Z,8.60
2023-11-23T12:08:40.168Z,8.81
2023-11-23T12:11:08.593Z,8.88
2023-11-23T12:13:37.726Z,8.92
2023-11-23T12:16:08.182Z,8.95
2023-11-23T12:18:38.097Z,9.00
2023-11-23T12:21:15.323Z,9.06
2023-11-23T12:23:48.988Z,9.08
2023-11-23T12:26:17.856Z,9.06
2023-11-23T12:28:48.515Z,9.06
2023-11-23T12:31:22.925Z,9.06
2023-11-23T12:33:51.321Z,9.09
2023-11-23T12:36:20.189Z,9.12
2023-11-23T12:38:50.487Z,9.16
2023-11-23T12:41:20.668Z,9.18
2023-11-23T12:43:48.771Z,9.19
2023-11-23T12:46:18.752Z,9.22
2023-11-23T12:48:47.145Z,9.24
2023-11-23T12:51:15.814Z,9.27
2023-11-23T12:53:44.427Z,9.30
2023-11-23T12:56:12.837Z,9.33
2023-11-23T12:58:41.801Z,9.34
2023-11-23T13:01:13.351Z,9.39
2023-11-23T13:03:43.648Z,9.39
2023-11-23T13:06:13.515Z,9.41
2023-11-23T13:08:41.680Z,9.44
2023-11-23T13:11:10.152Z,9.48
2023-11-23T13:13:40.179Z,9.52
2023-11-23T13:16:08.556Z,9.51
2023-11-23T13:18:53.546Z,9.55
2023-11-23T13:21:30.395Z,9.54
2023-11-23T13:24:00.864Z,9.54
2023-11-23T13:26:29.715Z,9.57
2023-11-23T13:28:58.687Z,9.61
2023-11-23T13:31:32.091Z,9.60
2023-11-23T13:34:02.376Z,9.60
2023-11-23T13:36:35.826Z,9.60
2023-11-23T13:39:04.499Z,9.58
2023-11-23T13:41:33.130Z,9.61
2023-11-23T13:44:02.535Z,9.58
2023-11-23T13:46:33.771Z,9.60
2023-11-23T13:49:02.968Z,9.62
2023-11-23T13:51:34.682Z,9.61
2023-11-23T13:54:05.723Z,9.62
2023-11-23T13:56:34.249Z,9.61
2023-11-23T13:59:03.643Z,9.62
2023-11-23T14:01:32.331Z,9.61
2023-11-23T14:04:02.833Z,9.62
2023-11-23T14:06:33.793Z,9.65
2023-11-23T14:09:03.188Z,9.67
2023-11-23T14:11:31.704Z,9.67
2023-11-23T14:14:01.930Z,9.68
2023-11-23T14:16:31.108Z,9.67
2023-11-23T14:18:59.350Z,9.67
2023-11-23T14:21:29.948Z,9.67
2023-11-23T14:24:00.171Z,9.67
2023-11-23T14:26:28.364Z,9.68
2023-11-23T14:28:56.811Z,9.68
2023-11-23T14:31:25.959Z,9.68
2023-11-23T14:33:56.265Z,9.67
2023-11-23T14:36:24.929Z,9.68
2023-11-23T14:38:55.016Z,9.68
2023-11-23T14:41:26.209Z,9.70
2023-11-23T14:43:54.347Z,9.70
2023-11-23T14:46:22.909Z,9.70
2023-11-23T14:48:53.036Z,9.71
2023-11-23T14:51:23.547Z,9.74
2023-11-23T14:53:53.391Z,9.73
2023-11-23T14:56:24.516Z,9.71
2023-11-23T14:58:54.843Z,9.71
2023-11-23T15:01:24.267Z,9.70
2023-11-23T15:03:52.453Z,9.70
2023-11-23T15:06:21.434Z,9.81
2023-11-23T15:08:49.590Z,9.92
2023-11-23T15:11:20.737Z,9.84
2023-11-23T15:13:50.254Z,9.78
2023-11-23T15:16:21.057Z,9.74
2023-11-23T15:18:54.346Z,9.73
2023-11-23T15:21:28.405Z,9.71
2023-11-23T15:24:02.124Z,9.71
2023-11-23T15:26:31.254Z,9.74
2023-11-23T15:29:03.042Z,9.75
2023-11-23T15:31:34.249Z,9.78
2023-11-23T15:34:03.393Z,9.77
2023-11-23T15:36:34.798Z,9.75
2023-11-23T15:39:05.142Z,9.78
2023-11-23T15:41:34.502Z,9.84
2023-11-23T15:44:07.055Z,9.85
2023-11-23T15:46:37.561Z,9.84
2023-11-23T15:49:08.030Z,9.85
2023-11-23T15:51:37.129Z,9.88
2023-11-23T15:54:06.882Z,9.87
2023-11-23T15:56:36.646Z,9.89
2023-11-23T15:59:08.017Z,9.91
2023-11-23T16:01:40.627Z,9.97
2023-11-23T16:04:12.761Z,9.98
2023-11-23T16:06:42.507Z,9.97
2023-11-23T16:09:11.822Z,9.98
2023-11-23T16:11:46.237Z,10.02
2023-11-23T16:14:15.689Z,10.01
2023-11-23T16:16:46.894Z,10.05
2023-11-23T16:19:16.113Z,10.05
2023-11-23T16:21:45.023Z,10.05
2023-11-23T16:24:16.020Z,10.08
2023-11-23T16:26:47.175Z,10.12
2023-11-23T16:29:18.027Z,10.12
2023-11-23T16:31:50.906Z,10.15
2023-11-23T16:34:19.939Z,10.18
2023-11-23T16:36:49.821Z,10.20
2023-11-23T16:39:20.889Z,10.23
2023-11-23T16:41:51.259Z,10.22
2023-11-23T16:44:20.470Z,10.26
2023-11-23T16:46:55.155Z,10.27
2023-11-23T16:49:24.629Z,10.30
2023-11-23T16:51:54.060Z,10.34
2023-11-23T16:54:23.186Z,10.33
2023-11-23T16:56:53.875Z,10.39
2023-11-23T16:59:23.335Z,10.39
2023-11-23T17:01:55.646Z,10.42
2023-11-23T17:04:24.827Z,10.42
2023-11-23T17:06:53.694Z,10.45
2023-11-23T17:09:23.391Z,10.47
2023-11-23T17:11:54.271Z,10.46
2023-11-23T17:14:23.864Z,10.47
2023-11-23T17:16:55.743Z,10.47
2023-11-23T17:19:28.482Z,10.50
2023-11-23T17:21:59.478Z,10.50
2023-11-23T17:24:29.226Z,10.50
2023-11-23T17:26:58.708Z,10.50
2023-11-23T17:29:28.207Z,10.49
2023-11-23T17:31:59.673Z,10.52
2023-11-23T17:34:28.682Z,10.50
2023-11-23T17:36:56.779Z,10.53
2023-11-23T17:39:25.911Z,10.53
2023-11-23T17:41:55.002Z,10.52
2023-11-23T17:44:23.544Z,10.52
2023-11-23T17:46:55.094Z,10.52
2023-11-23T17:49:25.238Z,10.56
2023-11-23T17:51:54.755Z,10.59
2023-11-23T17:54:24.165Z,10.56
2023-11-23T17:56:52.653Z,10.60
2023-11-23T17:59:31.732Z,10.57
2023-11-23T18:02:10.455Z,10.57
2023-11-23T18:04:40.364Z,10.60
2023-11-23T18:07:08.695Z,10.59
2023-11-23T18:09:37.224Z,10.57
2023-11-23T18:12:09.956Z,10.56
2023-11-23T18:14:38.368Z,10.59
2023-11-23T18:17:08.100Z,10.59
2023-11-23T18:19:37.247Z,10.57
2023-11-23T18:22:08.807Z,10.57
2023-11-23T18:24:37.422Z,10.56
2023-11-23T18:27:07.655Z,10.55
2023-11-23T18:29:37.500Z,10.50
2023-11-23T18:32:09.501Z,10.49
2023-11-23T18:34:38.206Z,10.46
2023-11-23T18:37:11.339Z,10.40
2023-11-23T18:39:39.511Z,10.45
2023-11-23T18:42:10.728Z,10.39
2023-11-23T18:44:40.441Z,10.33
2023-11-23T18:47:08.547Z,10.36
2023-11-23T18:49:36.699Z,10.33
2023-11-23T18:52:05.192Z,10.30
2023-11-23T18:54:34.966Z,10.29
2023-11-23T18:57:03.636Z,10.29
2023-11-23T18:59:31.812Z,10.26
2023-11-23T19:02:01.733Z,10.25
2023-11-23T19:04:30.073Z,10.22
2023-11-23T19:06:58.330Z,10.20
2023-11-23T19:09:28.783Z,10.19
2023-11-23T19:11:59.191Z,10.20
2023-11-23T19:14:27.456Z,10.18
2023-11-23T19:16:55.757Z,10.19
2023-11-23T19:19:23.565Z,10.16
2023-11-23T19:21:52.110Z,10.19
2023-11-23T19:24:20.795Z,10.20
2023-11-23T19:26:49.759Z,10.20
2023-11-23T19:29:34.929Z,10.23
2023-11-23T19:32:09.781Z,10.22
2023-11-23T19:34:39.271Z,10.22
2023-11-23T19:37:08.176Z,10.22
2023-11-23T19:39:37.487Z,10.25
2023-11-23T19:42:07.249Z,10.26
2023-11-23T19:44:37.752Z,10.18
2023-11-23T19:47:06.590Z,10.09
2023-11-23T19:49:36.316Z,10.02
2023-11-23T19:52:08.516Z,9.94
2023-11-23T19:54:36.767Z,9.81
2023-11-23T19:57:05.552Z,9.75
2023-11-23T19:59:33.970Z,9.65
2023-11-23T20:02:03.988Z,9.58
2023-11-23T20:04:34.195Z,9.50
2023-11-23T20:07:04.576Z,9.43
2023-11-23T20:09:32.675Z,9.36
2023-11-23T20:12:01.782Z,9.26
2023-11-23T20:14:29.952Z,9.23
2023-11-23T20:16:58.661Z,9.20
2023-11-23T20:19:29.948Z,9.06
2023-11-23T20:21:58.448Z,9.00
2023-11-23T20:24:26.945Z,8.96
2023-11-23T20:26:55.373Z,8.90
2023-11-23T20:29:23.821Z,8.83
2023-11-23T20:31:52.354Z,8.76
2023-11-23T20:34:20.935Z,8.69
2023-11-23T20:36:50.657Z,8.61
2023-11-23T20:39:19.058Z,8.57
2023-11-23T20:41:51.318Z,8.48
2023-11-23T20:44:19.733Z,8.44
2023-11-23T20:46:49.321Z,8.38
2023-11-23T20:49:19.362Z,8.33
2023-11-23T20:51:48.054Z,8.29
2023-11-23T20:54:18.998Z,8.27
2023-11-23T20:56:48.498Z,8.26
2023-11-23T20:59:17.696Z,8.24
2023-11-23T21:01:46.523Z,8.21
2023-11-23T21:04:16.916Z,8.17
2023-11-23T21:06:58.575Z,8.19
2023-11-23T21:09:35.659Z,8.16
2023-11-23T21:12:06.584Z,8.16
2023-11-23T21:14:38.768Z,8.11
2023-11-23T21:17:07.953Z,8.09
2023-11-23T21:19:39.596Z,8.09
2023-11-23T21:22:08.346Z,8.03
2023-11-23T21:24:38.722Z,8.03
2023-11-23T21:27:07.856Z,8.02
2023-11-23T21:29:36.372Z,8.00
2023-11-23T21:32:04.655Z,7.97
2023-11-23T21:34:32.706Z,7.96
2023-11-23T21:37:01.403Z,7.93
2023-11-23T21:39:30.056Z,7.87
2023-11-23T21:42:00.618Z,7.90
2023-11-23T21:44:28.791Z,7.92
2023-11-23T21:46:59.284Z,7.90
2023-11-23T21:49:27.934Z,7.85
2023-11-23T21:51:56.160Z,7.82
2023-11-23T21:54:24.454Z,7.79
2023-11-23T21:56:54.770Z,7.78
2023-11-23T21:59:24.346Z,7.73
2023-11-23T22:01:52.607Z,7.71
2023-11-23T22:04:20.923Z,7.63
2023-11-23T22:06:49.758Z,7.63
2023-11-23T22:09:18.148Z,7.62
2023-11-23T22:11:46.427Z,7.56
2023-11-23T22:14:14.674Z,7.61
2023-11-23T22:16:46.459Z,7.56
2023-11-23T22:19:16.271Z,7.55
2023-11-23T22:21:46.864Z,7.52
2023-11-23T22:24:18.179Z,7.52
2023-11-23T22:26:47.194Z,7.52
2023-11-23T22:29:15.486Z,7.51
2023-11-23T22:31:46.059Z,7.50
2023-11-23T22:34:15.644Z,7.54
2023-11-23T22:36:44.566Z,7.51
2023-11-23T22:39:13.460Z,7.45
2023-11-23T22:41:42.195Z,7.42
2023-11-23T22:44:13.695Z,7.40
2023-11-23T22:46:43.306Z,7.35
2023-11-23T22:49:13.167Z,7.34
2023-11-23T22:51:44.144Z,7.32
2023-11-23T22:54:12.772Z,7.32
2023-11-23T22:56:43.721Z,7.32
2023-11-23T22:59:12.059Z,7.30
2023-11-23T23:01:40.520Z,7.30
2023-11-23T23:04:11.295Z,7.27
2023-11-23T23:06:43.726Z,7.28
2023-11-23T23:09:13.146Z,7.31
2023-11-23T23:11:41.827Z,7.31
2023-11-23T23:14:10.934Z,7.34
2023-11-23T23:16:39.635Z,7.31
2023-11-23T23:19:08.056Z,7.32
2023-11-23T23:21:36.740Z,7.30
2023-11-23T23:24:07.363Z,7.30
2023-11-23T23:26:35.412Z,7.30
2023-11-23T23:29:05.181Z,7.28
2023-11-23T23:31:34.382Z,7.31
2023-11-23T23:34:02.929Z,7.32
2023-11-23T23:36:33.226Z,7.35
2023-11-23T23:39:01.398Z,7.35
2023-11-23T23:41:30.881Z,7.35
2023-11-23T23:43:59.046Z,7.35
2023-11-23T23:46:27.407Z,7.35
2023-11-23T23:48:55.554Z,7.31
2023-11-23T23:51:26.055Z,7.35
2023-11-23T23:53:54.958Z,7.35
2023-11-23T23:56:23.515Z,7.31
2023-11-23T23:58:53.626Z,7.23
